Time;durP1;ratioP1;P1;durP2;ratioP2;P2;SDS_P1;SDS_P2;PMS_P1;PMS_P2;Temp;Humidity;BMP_temperature;BMP_pressure;BME280_temperature;BME280_humidity;BME280_pressure;Samples;Min_cycle;Max_cycle;Signal;HPM_P1;HPM_P2
2023/10/02 00:02:43;;;;;;;12.60;4.27;;;;;;;17.27;100.00;101496.88;6027989;28;20054;-63
2023/10/02 00:05:50;;;;;;;10.53;4.33;;;;;;;17.32;100.00;101486.47;6020691;28;20123;-63
2023/10/02 00:08:51;;;;;;;10.23;4.43;;;;;;;17.38;100.00;101484.97;6028108;28;20384;-63
2023/10/02 00:11:47;;;;;;;11.07;4.63;;;;;;;17.32;100.00;101491.00;6028909;28;20492;-64
2023/10/02 00:14:42;;;;;;;12.13;4.67;;;;;;;17.18;100.00;101481.81;6027718;28;20034;-64
2023/10/02 00:17:43;;;;;;;12.25;4.65;;;;;;;17.24;100.00;101490.03;6028201;28;20015;-64
2023/10/02 00:20:38;;;;;;;16.42;4.63;;;;;;;17.20;100.00;101488.66;6026315;28;20030;-64
2023/10/02 00:23:33;;;;;;;14.07;4.83;;;;;;;17.24;100.00;101491.84;6028569;28;20041;-64
2023/10/02 00:26:29;;;;;;;14.93;4.60;;;;;;;17.07;100.00;101460.72;6027897;28;20426;-64
2023/10/02 00:29:28;;;;;;;12.30;4.43;;;;;;;17.18;100.00;101485.34;6027624;28;20340;-63
2023/10/02 00:32:26;;;;;;;13.02;4.28;;;;;;;17.17;100.00;101482.84;6027587;28;20038;-64
2023/10/02 00:35:22;;;;;;;13.10;4.82;;;;;;;17.12;100.00;101482.50;6027928;28;20058;-64
2023/10/02 00:38:17;;;;;;;12.02;4.32;;;;;;;17.11;100.00;101459.38;6027814;28;20031;-65
2023/10/02 00:41:12;;;;;;;15.30;5.00;;;;;;;17.25;100.00;101480.13;6027786;28;20033;-65
2023/10/02 00:44:08;;;;;;;12.27;4.03;;;;;;;17.31;100.00;101478.63;6027490;28;20045;-64
2023/10/02 00:47:05;;;;;;;13.37;5.17;;;;;;;17.35;100.00;101477.25;6027055;28;20386;-65
2023/10/02 00:50:08;;;;;;;13.32;4.68;;;;;;;17.36;100.00;101477.09;6028959;28;20032;-63
2023/10/02 00:53:04;;;;;;;11.05;4.80;;;;;;;17.37;100.00;101473.41;6027955;28;20027;-64
2023/10/02 00:56:02;;;;;;;15.05;4.55;;;;;;;17.41;100.00;101476.56;6026192;28;20058;-64
2023/10/02 00:59:00;;;;;;;12.25;4.53;;;;;;;17.41;100.00;101484.63;6006818;28;20031;-64
2023/10/02 01:01:56;;;;;;;13.48;5.20;;;;;;;17.26;100.00;101457.66;6021265;28;20117;-64
2023/10/02 01:04:56;;;;;;;11.38;4.50;;;;;;;17.34;100.00;101479.09;6026964;28;20408;-64
2023/10/02 01:07:54;;;;;;;11.30;4.07;;;;;;;17.31;100.00;101467.91;6026895;28;20030;-64
2023/10/02 01:10:59;;;;;;;9.32;3.95;;;;;;;17.37;100.00;101478.75;6027142;28;20065;-64
2023/10/02 01:13:54;;;;;;;13.07;4.82;;;;;;;17.28;100.00;101469.06;6026710;28;20502;-64
2023/10/02 01:16:50;;;;;;;13.30;4.43;;;;;;;17.32;100.00;101478.44;6026883;28;20058;-63
2023/10/02 01:19:57;;;;;;;13.25;4.28;;;;;;;17.35;100.00;101474.56;6029111;28;20371;-63
2023/10/02 01:22:55;;;;;;;12.00;4.57;;;;;;;17.25;100.00;101464.06;6023422;28;20037;-64
2023/10/02 01:25:56;;;;;;;16.77;5.35;;;;;;;17.30;100.00;101467.06;6023833;28;20478;-64
2023/10/02 01:28:54;;;;;;;13.55;4.65;;;;;;;17.27;100.00;101468.22;6026698;28;20067;-64
2023/10/02 01:31:52;;;;;;;15.13;5.40;;;;;;;17.13;100.00;101457.34;6018148;28;20034;-64
2023/10/02 01:34:47;;;;;;;10.50;4.07;;;;;;;17.07;100.00;101450.00;6027052;28;20042;-63
2023/10/02 01:37:46;;;;;;;13.27;4.55;;;;;;;17.03;100.00;101459.41;6025559;28;20030;-64
2023/10/02 01:40:54;;;;;;;14.63;4.38;;;;;;;16.96;100.00;101466.44;6026614;28;20497;-64
2023/10/02 01:43:49;;;;;;;13.23;5.20;;;;;;;16.88;100.00;101471.78;6026275;28;20137;-64
2023/10/02 01:46:50;;;;;;;14.88;4.80;;;;;;;16.85;100.00;101472.16;6026148;28;20042;-65
2023/10/02 01:49:47;;;;;;;12.00;4.93;;;;;;;16.69;100.00;101461.44;6030490;28;20030;-64
2023/10/02 01:52:45;;;;;;;11.27;4.90;;;;;;;16.69;100.00;101472.97;6024304;28;20046;-64
2023/10/02 01:55:40;;;;;;;11.73;4.50;;;;;;;16.59;100.00;101475.81;6026081;28;20042;-64
2023/10/02 01:58:36;;;;;;;13.77;4.82;;;;;;;16.39;100.00;101458.34;6025057;28;20421;-64
2023/10/02 02:01:46;;;;;;;18.20;5.03;;;;;;;16.25;100.00;101445.59;6026511;28;20069;-64
2023/10/02 02:04:42;;;;;;;11.45;4.63;;;;;;;16.33;100.00;101467.06;6023096;28;20034;-63
2023/10/02 02:07:37;;;;;;;12.82;4.65;;;;;;;16.27;100.00;101456.16;6025221;28;20446;-63
2023/10/02 02:10:34;;;;;;;12.48;4.22;;;;;;;16.33;100.00;101468.91;6026272;28;20433;-63
2023/10/02 02:13:40;;;;;;;14.20;5.63;;;;;;;16.34;100.00;101471.41;6025515;28;20045;-64
2023/10/02 02:16:35;;;;;;;10.68;4.40;;;;;;;16.32;100.00;101468.06;6025380;28;20030;-64
2023/10/02 02:19:30;;;;;;;13.73;4.60;;;;;;;16.24;100.00;101460.00;6025068;28;20026;-63
2023/10/02 02:22:31;;;;;;;11.97;4.50;;;;;;;16.15;100.00;101455.63;6011247;28;20034;-64
2023/10/02 02:25:26;;;;;;;;;;;;;;;16.19;100.00;101469.53;6026227;28;20270;-63
2023/10/02 02:28:22;;;;;;;15.40;4.60;;;;;;;16.05;100.00;101453.13;6024373;28;19917;-64
2023/10/02 02:31:30;;;;;;;13.88;4.93;;;;;;;16.02;100.00;101452.59;6025904;28;20045;-63
2023/10/02 02:34:26;;;;;;;14.88;4.93;;;;;;;16.08;100.00;101473.34;6025040;28;20042;-64
2023/10/02 02:37:28;;;;;;;13.15;4.45;;;;;;;16.01;100.00;101457.09;6024837;28;20593;-64
2023/10/02 02:40:25;;;;;;;13.77;5.15;;;;;;;16.05;100.00;101462.97;6025590;28;20045;-64
2023/10/02 02:43:21;;;;;;;16.02;5.53;;;;;;;15.97;100.00;101465.63;6023793;28;20041;-64
2023/10/02 02:46:17;;;;;;;15.02;5.50;;;;;;;15.83;100.00;101447.50;6019408;28;20031;-64
2023/10/02 02:49:12;;;;;;;14.15;5.00;;;;;;;15.76;100.00;101444.63;6029333;28;20481;-64
2023/10/02 02:52:08;;;;;;;13.97;4.53;;;;;;;15.74;100.00;101449.31;6019521;28;20038;-64
2023/10/02 02:55:12;;;;;;;11.57;4.65;;;;;;;15.77;100.00;101453.50;6018246;28;20034;-64
2023/10/02 02:58:08;;;;;;;17.15;4.47;;;;;;;15.75;100.00;101455.50;6024980;28;20037;-65
2023/10/02 03:01:06;;;;;;;12.93;4.40;;;;;;;15.67;100.00;101452.81;6025438;28;20038;-64
2023/10/02 03:04:13;;;;;;;12.13;5.18;;;;;;;15.69;100.00;101462.34;6024679;28;20372;-64
2023/10/02 03:07:09;;;;;;;10.18;4.30;;;;;;;15.68;100.00;101459.84;6021579;28;20031;-64
2023/10/02 03:10:10;;;;;;;13.60;5.00;;;;;;;15.66;100.00;101457.31;6025082;28;20038;-64
2023/10/02 03:13:15;;;;;;;15.45;5.40;;;;;;;15.57;100.00;101441.41;6017816;28;20035;-64
2023/10/02 03:16:12;;;;;;;14.48;5.57;;;;;;;15.67;100.00;101447.44;6019765;28;20413;-64
2023/10/02 03:19:07;;;;;;;10.45;4.20;;;;;;;15.55;100.00;101438.03;6024201;28;20430;-63
2023/10/02 03:22:03;;;;;;;15.40;5.00;;;;;;;15.56;100.00;101435.22;6024831;28;20034;-65
2023/10/02 03:25:24;;;;;;;12.90;4.70;;;;;;;15.58;100.00;101457.28;6026677;28;20085;-63
2023/10/02 03:28:27;;;;;;;15.57;4.97;;;;;;;15.51;100.00;101458.06;6028820;28;20034;-64
2023/10/02 03:31:34;;;;;;;12.55;4.78;;;;;;;15.39;100.00;101442.28;6029827;28;20113;-64
2023/10/02 03:34:30;;;;;;;13.90;4.57;;;;;;;15.53;100.00;101450.72;6029167;28;20512;-63
2023/10/02 03:37:27;;;;;;;12.48;4.90;;;;;;;15.39;100.00;101434.25;6028605;28;20063;-64
2023/10/02 03:40:25;;;;;;;13.52;4.68;;;;;;;15.40;100.00;101441.28;6029640;28;20133;-64
2023/10/02 03:43:34;;;;;;;13.48;5.35;;;;;;;15.32;100.00;101425.22;6029183;28;20561;-64
2023/10/02 03:46:35;;;;;;;16.15;4.15;;;;;;;15.33;100.00;101432.22;6029179;28;20045;-64
2023/10/02 03:49:33;;;;;;;13.43;4.85;;;;;;;15.15;100.00;101409.25;6027955;28;20089;-64
2023/10/02 03:52:30;;;;;;;15.70;5.10;;;;;;;15.24;100.00;101427.84;6028831;28;20482;-63
2023/10/02 03:55:26;;;;;;;12.70;5.55;;;;;;;15.12;100.00;101418.41;6027499;28;20037;-64
2023/10/02 03:58:35;;;;;;;11.40;4.45;;;;;;;15.17;100.00;101426.78;6028855;28;20043;-64
2023/10/02 04:01:31;;;;;;;14.38;4.80;;;;;;;15.16;100.00;101435.81;6028609;28;20046;-64
2023/10/02 04:04:32;;;;;;;13.52;5.10;;;;;;;15.03;100.00;101416.69;6029213;28;20097;-64
2023/10/02 04:07:29;;;;;;;12.77;5.03;;;;;;;15.11;100.00;101431.94;6028233;28;20034;-64
2023/10/02 04:10:24;;;;;;;11.65;4.55;;;;;;;15.04;100.00;101433.53;6020670;28;20031;-64
2023/10/02 04:13:25;;;;;;;13.60;4.83;;;;;;;14.98;100.00;101426.16;6028797;28;20038;-64
2023/10/02 04:16:29;;;;;;;24.55;5.32;;;;;;;14.91;100.00;101423.28;6028067;28;20273;-64
2023/10/02 04:19:24;;;;;;;14.88;4.53;;;;;;;14.86;100.00;101420.25;6028448;28;20054;-63
2023/10/02 04:22:19;;;;;;;10.30;4.17;;;;;;;14.78;100.00;101422.88;6028594;28;20038;-64
2023/10/02 04:25:15;;;;;;;10.73;4.18;;;;;;;14.82;100.00;101424.22;6027990;28;20026;-64
2023/10/02 04:28:12;;;;;;;14.40;4.97;;;;;;;14.75;100.00;101420.50;6027336;28;20484;-64
2023/10/02 04:31:09;;;;;;;16.13;5.25;;;;;;;14.73;100.00;101422.50;6028289;28;20288;-64
2023/10/02 04:37:22;;;;;;;14.23;5.43;;;;;;;14.63;100.00;101414.56;6026466;28;20553;-64
2023/10/02 04:40:23;;;;;;;13.52;4.88;;;;;;;14.63;100.00;101427.91;6028371;28;20050;-63
2023/10/02 04:43:25;;;;;;;13.27;4.90;;;;;;;14.58;100.00;101416.88;6026879;28;20038;-63
2023/10/02 04:46:24;;;;;;;13.88;4.30;;;;;;;14.55;100.00;101414.50;6027611;28;20476;-64
2023/10/02 04:49:20;;;;;;;14.88;4.72;;;;;;;14.59;100.00;101420.38;6027349;28;20060;-64
2023/10/02 04:52:15;;;;;;;12.85;4.68;;;;;;;14.58;100.00;101426.69;6020950;28;20034;-63
2023/10/02 04:55:11;;;;;;;14.37;4.63;;;;;;;14.60;100.00;101424.72;6017929;28;20042;-63
2023/10/02 04:58:09;;;;;;;13.13;5.10;;;;;;;14.55;100.00;101427.00;6026970;28;20534;-63
2023/10/02 05:04:04;;;;;;;15.53;5.47;;;;;;;14.61;100.00;101434.41;6027637;28;20034;-63
2023/10/02 05:07:04;;;;;;;14.43;5.20;;;;;;;14.48;100.00;101416.13;6027464;28;20042;-63
2023/10/02 05:10:06;;;;;;;12.52;4.70;;;;;;;14.59;100.00;101439.06;6026947;28;20086;-64
2023/10/02 05:13:01;;;;;;;18.48;5.15;;;;;;;14.57;100.00;101425.84;6027352;28;20030;-64
2023/10/02 05:16:11;;;;;;;13.27;4.50;;;;;;;14.55;100.00;101432.34;6026432;28;20038;-63
2023/10/02 05:19:08;;;;;;;11.98;4.10;;;;;;;14.49;100.00;101420.44;6026428;28;20429;-64
2023/10/02 05:22:04;;;;;;;15.38;5.18;;;;;;;14.53;100.00;101426.31;6027407;28;20062;-63
2023/10/02 05:25:00;;;;;;;13.85;4.82;;;;;;;14.47;100.00;101432.28;6026485;28;20114;-63
2023/10/02 05:27:57;;;;;;;15.05;4.65;;;;;;;14.44;100.00;101437.91;6026292;28;20030;-63
2023/10/02 05:30:52;;;;;;;18.13;5.30;;;;;;;14.44;100.00;101419.22;6026255;28;20073;-64
2023/10/02 05:33:48;;;;;;;13.97;4.63;;;;;;;14.39;100.00;101410.84;6026338;28;20042;-64
2023/10/02 05:37:11;;;;;;;13.48;4.57;;;;;;;14.43;100.00;101412.25;6026180;28;20022;-63
2023/10/02 05:43:18;;;;;;;13.88;4.82;;;;;;;14.53;100.00;101429.00;6026123;28;20433;-64
2023/10/02 05:46:16;;;;;;;12.80;4.40;;;;;;;14.50;100.00;101416.81;6026076;28;20030;-63
2023/10/02 05:49:12;;;;;;;13.00;4.72;;;;;;;14.63;100.00;101435.06;6030872;28;20404;-64
2023/10/02 05:52:07;;;;;;;11.30;5.00;;;;;;;14.70;100.00;101436.97;6019914;28;20039;-64
2023/10/02 05:55:09;;;;;;;14.35;4.60;;;;;;;14.80;100.00;101432.41;6025532;28;20030;-64
2023/10/02 05:58:05;;;;;;;15.05;5.20;;;;;;;14.99;100.00;101426.00;6024980;28;20034;-64
2023/10/02 06:01:03;;;;;;;13.30;4.68;;;;;;;15.01;100.00;101425.84;6026514;28;20026;-64
2023/10/02 06:04:00;;;;;;;14.00;4.65;;;;;;;15.25;100.00;101437.53;6026091;28;20042;-64
2023/10/02 06:07:01;;;;;;;14.55;5.30;;;;;;;15.45;100.00;101441.66;6025321;28;20031;-64
2023/10/02 06:10:00;;;;;;;12.88;4.80;;;;;;;15.72;100.00;101434.44;6025199;28;20030;-64
2023/10/02 06:13:03;;;;;;;14.95;5.15;;;;;;;15.95;100.00;101430.19;6025518;28;20034;-63
2023/10/02 06:15:58;;;;;;;14.88;5.20;;;;;;;16.59;100.00;101440.16;6025908;28;20133;-63
2023/10/02 06:19:03;;;;;;;13.65;4.75;;;;;;;16.62;100.00;101423.75;6025305;28;20030;-64
2023/10/02 06:22:04;;;;;;;13.02;5.50;;;;;;;16.85;100.00;101432.78;6023647;28;20088;-64
2023/10/02 06:24:59;;;;;;;12.68;4.80;;;;;;;17.08;100.00;101433.75;6025256;28;20045;-63
2023/10/02 06:28:19;;;;;;;12.67;4.77;;;;;;;17.24;100.00;101431.03;6024837;28;20030;-63
2023/10/02 06:31:10;;;;;;;12.32;4.88;;;;;;;17.00;100.00;101424.91;6024458;28;20281;-64
2023/10/02 06:34:06;;;;;;;12.10;4.77;;;;;;;16.95;100.00;101435.28;6024380;28;20056;-64
2023/10/02 06:37:07;;;;;;;15.32;4.45;;;;;;;16.84;100.00;101422.25;6025312;28;20323;-64
2023/10/02 06:40:13;;;;;;;14.98;4.97;;;;;;;16.90;100.00;101441.16;6021999;28;20030;-64
2023/10/02 06:43:28;;;;;;;13.98;5.13;;;;;;;16.90;100.00;101435.81;6021673;28;20030;-64
2023/10/02 06:46:23;;;;;;;14.13;4.60;;;;;;;16.87;100.00;101427.25;6025054;28;20148;-64
2023/10/02 06:49:23;;;;;;;15.82;5.05;;;;;;;16.99;100.00;101441.97;6031532;28;20371;-63
2023/10/02 06:52:19;;;;;;;13.73;4.78;;;;;;;17.06;100.00;101432.25;6021774;28;20061;-63
2023/10/02 06:55:17;;;;;;;17.05;5.20;;;;;;;17.08;100.00;101438.28;6018109;28;20100;-64
2023/10/02 06:58:14;;;;;;;12.88;4.70;;;;;;;17.22;100.00;101451.00;6025197;28;20062;-64
2023/10/02 07:01:10;;;;;;;12.93;4.75;;;;;;;17.28;100.00;101436.91;6029685;28;20383;-63
2023/10/02 07:04:09;;;;;;;14.20;5.00;;;;;;;17.70;100.00;101450.84;6029815;28;20034;-64
2023/10/02 07:07:04;;;;;;;12.40;4.70;;;;;;;17.83;100.00;101442.25;6028814;28;20038;-64
2023/10/02 07:10:09;;;;;;;12.65;4.50;;;;;;;18.15;97.38;101454.66;6029620;28;20061;-63
2023/10/02 07:13:18;;;;;;;13.95;5.40;;;;;;;18.24;97.22;101448.22;6028186;28;20030;-63
2023/10/02 07:16:15;;;;;;;13.80;4.60;;;;;;;18.42;95.51;101455.00;6029621;28;20038;-64
2023/10/02 07:19:10;;;;;;;12.15;4.32;;;;;;;18.30;95.48;101455.56;6028033;28;20474;-64
2023/10/02 07:22:16;;;;;;;14.87;5.00;;;;;;;18.27;97.14;101463.97;6029823;28;20085;-64
2023/10/02 07:25:11;;;;;;;14.45;5.03;;;;;;;18.57;95.43;101457.75;6029657;28;20486;-64
2023/10/02 07:28:08;;;;;;;11.33;4.87;;;;;;;18.49;96.38;101460.50;6028437;28;20057;-64
2023/10/02 07:31:03;;;;;;;11.82;5.03;;;;;;;18.29;97.35;101459.28;6029922;28;20026;-64
2023/10/02 07:33:58;;;;;;;13.23;5.35;;;;;;;18.33;97.84;101469.47;6029507;28;20611;-64
2023/10/02 07:36:54;;;;;;;15.33;4.67;;;;;;;18.42;97.81;101481.00;6029278;28;20027;-64
2023/10/02 07:39:56;;;;;;;13.17;4.67;;;;;;;18.34;98.27;101473.00;6027370;28;20031;-63
2023/10/02 07:42:52;;;;;;;17.25;5.35;;;;;;;18.49;97.16;101473.09;6029013;28;20042;-64
2023/10/02 07:46:14;;;;;;;13.13;5.15;;;;;;;18.65;96.91;101465.75;6028797;28;20030;-64
2023/10/02 07:49:10;;;;;;;12.60;5.18;;;;;;;18.92;95.58;101462.50;6032801;28;20034;-65
2023/10/02 07:52:09;;;;;;;12.73;4.78;;;;;;;19.11;93.04;101458.44;6025054;28;20117;-63
2023/10/02 07:55:10;;;;;;;14.73;5.10;;;;;;;19.12;92.40;101456.59;6028004;28;20121;-64
2023/10/02 07:58:08;;;;;;;12.00;4.40;;;;;;;19.28;91.83;101459.13;6028254;28;20489;-64
2023/10/02 08:01:11;;;;;;;13.25;4.55;;;;;;;19.47;89.64;101450.53;6028117;28;20027;-64
2023/10/02 08:04:06;;;;;;;15.30;5.85;;;;;;;19.48;89.28;101438.75;6029001;28;20045;-64
2023/10/02 08:07:01;;;;;;;14.67;4.93;;;;;;;19.88;86.92;101448.16;6028675;28;20389;-64
2023/10/02 08:09:57;;;;;;;14.53;5.30;;;;;;;19.91;84.98;101454.03;6026504;28;20034;-64
2023/10/02 08:12:55;;;;;;;14.38;5.18;;;;;;;19.84;85.27;101453.09;6028914;28;20030;-65
2023/10/02 08:15:50;;;;;;;15.15;5.63;;;;;;;19.91;85.84;101448.63;6026470;28;20038;-64
2023/10/02 08:18:58;;;;;;;11.13;5.53;;;;;;;19.87;84.94;101433.03;6028372;28;20081;-64
2023/10/02 08:21:55;;;;;;;13.05;5.00;;;;;;;20.13;84.34;101428.81;6025557;28;20037;-64
2023/10/02 08:24:52;;;;;;;12.85;5.13;;;;;;;20.20;82.70;101421.63;6023141;28;20121;-64
2023/10/02 08:27:55;;;;;;;18.20;5.95;;;;;;;20.17;82.94;101442.72;6023404;28;20030;-64
2023/10/02 08:30:59;;;;;;;18.23;5.40;;;;;;;20.41;82.15;101423.50;6028231;28;20452;-65
2023/10/02 08:34:03;;;;;;;14.70;5.10;;;;;;;20.77;80.56;101416.16;6024976;28;20034;-64
2023/10/02 08:37:05;;;;;;;16.10;5.47;;;;;;;21.13;77.85;101432.25;6028074;28;20034;-65
2023/10/02 08:40:00;;;;;;;16.38;5.72;;;;;;;21.25;76.58;101433.34;6025610;28;20394;-65
2023/10/02 08:42:56;;;;;;;12.43;4.67;;;;;;;21.17;76.14;101422.72;6030572;28;20061;-64
2023/10/02 08:45:51;;;;;;;15.57;5.47;;;;;;;21.40;76.15;101435.94;6025527;28;20034;-64
2023/10/02 08:48:54;;;;;;;13.13;4.93;;;;;;;20.61;78.81;101427.22;6021786;28;20085;-64
2023/10/02 08:51:49;;;;;;;19.02;6.10;;;;;;;20.26;80.98;101419.22;6018188;28;20056;-63
2023/10/02 08:54:46;;;;;;;11.60;5.22;;;;;;;20.42;81.75;101425.19;6024021;28;20045;-64
2023/10/02 08:57:51;;;;;;;14.68;5.65;;;;;;;20.85;80.13;101433.22;6032173;28;20054;-65
2023/10/02 09:07:24;;;;;;;14.27;5.60;;;;;;;21.48;75.33;101414.19;6023752;28;20048;-65
2023/10/02 09:10:25;;;;;;;;;;;;;;;21.05;77.03;101410.78;6025938;28;20073;-64
2023/10/02 09:13:24;;;;;;;12.52;4.88;;;;;;;20.82;78.27;101383.22;6023460;28;19914;-65
2023/10/02 09:16:20;;;;;;;11.88;4.75;;;;;;;21.07;78.48;101397.13;6020984;28;20124;-65
2023/10/02 09:19:30;;;;;;;12.68;5.13;;;;;;;21.42;76.10;101389.84;6021290;28;20043;-64
2023/10/02 09:22:27;;;;;;;13.25;4.80;;;;;;;22.06;74.22;101404.69;6018315;28;20065;-65
2023/10/02 09:25:36;;;;;;;13.73;4.93;;;;;;;22.23;71.50;101405.94;6014080;28;20045;-65
2023/10/02 09:28:42;;;;;;;13.13;5.40;;;;;;;22.82;70.43;101411.44;6023711;28;20126;-65
2023/10/02 09:31:37;;;;;;;13.48;5.32;;;;;;;22.78;69.25;101409.34;6018910;28;20042;-65
2023/10/02 09:34:34;;;;;;;13.70;5.15;;;;;;;22.77;69.04;101399.59;6023962;28;20100;-65
2023/10/02 09:37:29;;;;;;;14.52;5.15;;;;;;;22.97;67.89;101401.22;6018916;28;20486;-65
2023/10/02 09:40:29;;;;;;;15.90;5.80;;;;;;;23.01;67.28;101393.53;6019878;28;20124;-65
2023/10/02 09:43:28;;;;;;;18.23;6.00;;;;;;;23.04;68.13;101393.94;6019124;28;20035;-64
2023/10/02 09:46:29;;;;;;;16.95;6.07;;;;;;;;;;6018983;28;20443;-65
2023/10/02 09:49:30;;;;;;;15.60;5.55;;;;;;;22.67;69.12;101364.81;6019231;28;20498;-65
2023/10/02 09:52:34;;;;;;;14.00;5.40;;;;;;;22.84;68.65;101378.75;6019875;28;20438;-65
2023/10/02 09:55:41;;;;;;;13.23;5.80;;;;;;;23.04;68.35;101376.88;6022989;28;20082;-65
2023/10/02 09:58:52;;;;;;;15.32;5.55;;;;;;;22.83;67.88;101379.81;6023894;28;20042;-65
2023/10/02 10:11:18;;;;;;;13.53;6.00;;;;;;;23.43;65.61;101365.09;6023141;28;20117;-65
2023/10/02 10:14:39;;;;;;;13.88;5.32;;;;;;;23.58;65.22;101358.41;6022669;28;20046;-64
2023/10/02 10:17:50;;;;;;;16.80;6.13;;;;;;;23.27;65.63;101363.69;6018142;28;20046;-65
2023/10/02 10:20:45;;;;;;;12.02;5.70;;;;;;;23.47;65.67;101356.34;6015220;28;20030;-64
2023/10/02 10:23:41;;;;;;;14.83;5.47;;;;;;;23.61;65.34;101357.13;6024241;28;20053;-64
2023/10/02 10:26:39;;;;;;;14.40;5.50;;;;;;;23.74;65.32;101351.66;6023736;28;20296;-64
2023/10/02 10:29:38;;;;;;;17.13;5.22;;;;;;;23.80;64.92;101366.19;6022086;28;20389;-64
2023/10/02 10:32:33;;;;;;;15.27;5.50;;;;;;;24.04;65.63;101357.31;6023674;28;20038;-65
2023/10/02 10:35:35;;;;;;;12.30;5.50;;;;;;;24.28;62.44;101354.66;6013531;28;20615;-65
2023/10/02 10:38:40;;;;;;;17.52;5.57;;;;;;;24.16;62.81;101361.00;6016114;28;20044;-65
2023/10/02 10:41:40;;;;;;;15.68;6.20;;;;;;;24.04;63.51;101357.31;6022163;28;20470;-65
2023/10/02 10:44:43;;;;;;;15.27;5.82;;;;;;;23.95;64.46;101353.19;6023814;28;20072;-65
2023/10/02 10:47:38;;;;;;;15.90;6.15;;;;;;;23.75;64.31;101341.63;6022670;28;20034;-65
2023/10/02 10:50:33;;;;;;;14.68;5.90;;;;;;;24.31;64.10;101341.69;6016219;28;20540;-66
2023/10/02 10:53:29;;;;;;;16.37;6.10;;;;;;;24.74;63.07;101346.13;6024756;28;20042;-65
2023/10/02 10:56:25;;;;;;;14.75;5.85;;;;;;;24.78;60.63;101333.78;6017284;28;20336;-65
2023/10/02 10:59:25;;;;;;;13.73;5.90;;;;;;;24.54;62.37;101328.38;6024791;28;20092;-64
2023/10/02 11:02:21;;;;;;;12.80;5.57;;;;;;;24.79;61.29;101332.75;6023082;28;20046;-64
2023/10/02 11:05:20;;;;;;;15.05;5.65;;;;;;;24.99;60.30;101335.25;6024097;28;20057;-65
2023/10/02 11:08:23;;;;;;;13.00;5.68;;;;;;;25.06;59.16;101340.63;6023762;28;20034;-65
2023/10/02 11:11:25;;;;;;;16.45;6.07;;;;;;;24.91;60.16;101343.69;6023714;28;20058;-65
2023/10/02 11:14:34;;;;;;;12.88;5.07;;;;;;;24.95;59.39;101338.66;6025082;28;20089;-65
2023/10/02 11:17:32;;;;;;;14.73;5.40;;;;;;;25.18;59.31;101334.22;6020502;28;20433;-65
2023/10/02 11:20:31;;;;;;;15.80;5.88;;;;;;;25.03;59.45;101322.06;6025114;28;20026;-65
2023/10/02 11:23:37;;;;;;;18.60;6.32;;;;;;;24.97;59.08;101322.97;6025010;28;20038;-65
2023/10/02 11:26:32;;;;;;;;;;;;;;;24.92;60.18;101333.69;6025489;28;20056;-65
2023/10/02 11:29:34;;;;;;;14.63;5.73;;;;;;;25.19;59.86;101310.59;6021461;28;19917;-64
2023/10/02 11:32:50;;;;;;;14.73;5.40;;;;;;;25.43;59.07;101315.09;6016985;28;20101;-65
2023/10/02 11:35:46;;;;;;;14.10;6.25;;;;;;;25.47;58.85;101326.34;6018847;28;20074;-66
2023/10/02 11:38:41;;;;;;;11.90;5.28;;;;;;;25.61;57.38;101320.53;6049137;28;20033;-65
2023/10/02 11:41:37;;;;;;;15.13;5.83;;;;;;;25.40;58.60;101315.56;6025117;28;20038;-65
2023/10/02 11:44:32;;;;;;;18.83;5.38;;;;;;;25.88;56.17;101316.38;6024882;28;20022;-65
2023/10/02 11:47:28;;;;;;;14.68;5.25;;;;;;;25.43;58.84;101312.38;6028419;28;20026;-65
2023/10/02 11:50:24;;;;;;;12.48;5.13;;;;;;;25.83;56.17;101320.84;6024107;28;20035;-65
2023/10/02 11:53:21;;;;;;;13.63;5.73;;;;;;;25.62;56.95;101310.50;6027849;28;20049;-65
2023/10/02 11:56:20;;;;;;;13.05;5.43;;;;;;;25.63;56.46;101318.41;6028979;28;20065;-66
2023/10/02 11:59:15;;;;;;;12.15;5.45;;;;;;;25.55;57.42;101302.41;6028384;28;20041;-65
2023/10/02 12:02:11;;;;;;;12.20;5.80;;;;;;;25.60;58.01;101305.28;6028990;28;20370;-66
2023/10/02 12:05:07;;;;;;;13.68;5.90;;;;;;;25.85;56.99;101300.53;6028156;28;20340;-66
2023/10/02 12:08:03;;;;;;;14.10;5.72;;;;;;;25.61;57.38;101304.22;6028437;28;20126;-65
2023/10/02 12:10:58;;;;;;;14.80;5.78;;;;;;;25.21;57.97;101289.47;6028905;28;20026;-65
2023/10/02 12:13:54;;;;;;;13.77;5.57;;;;;;;24.97;57.93;101293.09;6028970;28;20030;-65
2023/10/02 12:16:50;;;;;;;12.18;5.57;;;;;;;24.85;59.73;101285.72;6028624;28;20030;-65
2023/10/02 12:19:46;;;;;;;13.97;5.43;;;;;;;25.10;59.48;101295.66;6028321;28;20482;-65
2023/10/02 12:22:46;;;;;;;13.35;6.25;;;;;;;24.75;59.98;101290.81;6020675;28;20313;-66
2023/10/02 12:25:47;;;;;;;14.07;5.55;;;;;;;24.78;60.78;101282.22;6028415;28;20038;-65
2023/10/02 12:28:43;;;;;;;14.55;5.35;;;;;;;24.80;60.18;101282.84;6027401;28;20062;-66
2023/10/02 12:31:38;;;;;;;13.45;5.35;;;;;;;25.19;58.76;101275.31;6028636;28;20030;-66
2023/10/02 12:34:33;;;;;;;16.45;5.88;;;;;;;24.96;59.77;101277.88;6028422;28;20041;-66
2023/10/02 12:37:31;;;;;;;16.07;5.57;;;;;;;24.97;59.86;101271.41;6024838;28;20069;-65
2023/10/02 12:40:31;;;;;;;12.65;5.53;;;;;;;25.04;59.18;101280.28;6027384;28;20541;-65
2023/10/02 12:43:27;;;;;;;14.07;4.85;;;;;;;25.16;59.35;101270.31;6027790;28;20037;-65
2023/10/02 12:46:25;;;;;;;15.35;5.07;;;;;;;25.03;59.74;101274.00;6027048;28;20034;-65
2023/10/02 12:49:21;;;;;;;11.63;4.80;;;;;;;24.93;60.61;101272.88;6028161;28;20117;-66
2023/10/02 12:52:17;;;;;;;12.07;5.05;;;;;;;25.42;58.88;101269.97;6027310;28;20034;-66
2023/10/02 12:55:12;;;;;;;12.55;4.95;;;;;;;25.24;59.65;101267.31;6018733;28;20085;-65
2023/10/02 12:58:08;;;;;;;11.65;4.45;;;;;;;24.79;60.84;101270.34;6023986;28;20038;-65
2023/10/02 13:01:04;;;;;;;16.35;5.20;;;;;;;24.74;61.40;101250.31;6023889;28;20038;-65
2023/10/02 13:03:59;;;;;;;12.68;5.00;;;;;;;24.63;62.49;101265.47;6024987;28;20464;-66
2023/10/02 13:06:55;;;;;;;12.10;4.20;;;;;;;24.48;61.83;101265.00;6023663;28;20034;-66
2023/10/02 13:09:51;;;;;;;12.20;4.47;;;;;;;24.25;62.75;101273.75;6023765;28;20045;-65
2023/10/02 13:12:47;;;;;;;16.40;4.60;;;;;;;24.15;63.03;101254.47;6015880;28;20145;-66
2023/10/02 13:15:43;;;;;;;12.38;4.65;;;;;;;24.17;63.47;101249.63;6013566;28;20045;-65
2023/10/02 13:18:39;;;;;;;13.57;5.10;;;;;;;24.15;64.51;101270.72;6017788;28;20532;-65
2023/10/02 13:21:40;;;;;;;11.80;4.60;;;;;;;24.09;64.05;101263.47;6012946;28;20036;-66
2023/10/02 13:24:35;;;;;;;14.43;5.03;;;;;;;24.14;64.91;101254.66;6016296;28;20034;-65
2023/10/02 13:27:36;;;;;;;11.47;4.27;;;;;;;24.37;64.79;101263.03;6021809;28;20061;-66
2023/10/02 13:30:33;;;;;;;11.45;4.10;;;;;;;24.40;64.33;101254.44;6022298;28;20026;-65
2023/10/02 13:33:28;;;;;;;10.85;4.40;;;;;;;24.43;63.24;101248.59;6021973;28;20030;-65
2023/10/02 13:36:25;;;;;;;13.50;4.53;;;;;;;24.67;62.74;101261.25;6017246;28;20077;-65
2023/10/02 13:39:22;;;;;;;13.52;4.68;;;;;;;24.73;63.22;101254.09;6023462;28;20026;-65
2023/10/02 13:42:17;;;;;;;10.77;4.85;;;;;;;25.00;61.89;101241.91;6022466;28;20172;-65
2023/10/02 13:45:13;;;;;;;12.18;4.15;;;;;;;25.00;61.97;101236.50;6022930;28;20832;-65
2023/10/02 13:48:09;;;;;;;11.30;4.38;;;;;;;24.71;63.19;101243.47;6022485;28;20042;-65
2023/10/02 13:51:05;;;;;;;12.07;4.87;;;;;;;24.65;63.50;101236.22;6018008;28;20504;-66
2023/10/02 13:54:01;;;;;;;10.60;4.07;;;;;;;24.67;63.91;101233.28;6017090;28;20105;-65
2023/10/02 13:56:56;;;;;;;10.85;4.28;;;;;;;24.77;63.42;101234.44;6018165;28;20494;-66
2023/10/02 13:59:51;;;;;;;10.57;4.05;;;;;;;24.84;63.25;101218.91;6017372;28;20022;-66
2023/10/02 14:02:48;;;;;;;10.97;3.73;;;;;;;25.07;63.83;101198.38;6021789;28;20080;-65
2023/10/02 14:05:43;;;;;;;11.82;4.13;;;;;;;25.06;61.11;101207.59;6018679;28;20781;-66